Latest Weather Observations for Cairns Racecourse

IDQ60801

Issued at 8:02 am EST Sunday 19 May 2024 (issued every 10 minutes, with the page automatically refreshed every 10 minutes)

About weather observations | Map of weather stations | Latest weather observations for QLD | Other Formats
Station Details ID: 031222 Name: CAIRNS RACECOURSE Lat: -16.95 Lon: 145.75 Height: 4.1 m
Data from the previous 72 hours. | See also: Recent months at Cairns Racecourse
Date/Time
EST
Temp
°C
App
Temp
°C
Dew
Point
°C
Rel
Hum
%
Delta-T
°C
Wind Press
QNH
hPa
Press
MSL
hPa
Rain since
9am
mm
Dir  Spd
km/h
Gust
km/h
Spd
kts
Gust
kts
19/08:00am 19.9 22.6 19.4 97 0.3 SSW 4 7 2 4 1014.2 1014.2 0.0
19/07:30am 18.2 19.9 18.0 99 0.1 E 6 9 3 5 1014.1 1014.1 0.0
19/07:00am 16.7 19.0 16.7 100 0.0 CALM 0 0 0 0 1013.7 1013.7 0.0
19/06:30am 16.4 18.6 16.4 100 0.0 CALM 0 0 0 0 1013.7 1013.7 0.0
19/06:00am 16.7 17.8 16.7 100 0.0 SSE 6 7 3 4 1013.4 1013.4 0.0
19/05:30am 16.2 17.9 16.2 100 0.0 SSE 2 6 1 3 1013.3 1013.3 0.0
19/05:00am 16.0 16.9 16.0 100 0.0 SSE 6 9 3 5 1013.1 1013.1 0.0
19/04:30am 15.6 17.1 15.6 100 0.0 SW 2 7 1 4 1013.2 1013.2 0.0
19/04:00am 16.1 18.1 16.1 100 0.0 CALM 0 0 0 0 1013.4 1013.4 0.0
19/03:30am 16.1 18.1 16.1 100 0.0 CALM 0 0 0 0 1013.2 1013.2 0.0
19/03:00am 16.1 18.1 15.9 99 0.1 CALM 0 0 0 0 1013.1 1013.1 0.0
19/02:30am 16.3 18.3 16.1 99 0.1 CALM 0 0 0 0 1013.3 1013.3 0.0
19/02:00am 16.2 18.2 16.0 99 0.1 CALM 0 0 0 0 1013.3 1013.3 0.0
19/01:30am 16.3 18.3 16.1 99 0.1 CALM 0 0 0 0 1013.6 1013.6 0.0
19/01:00am 16.4 18.4 15.9 97 0.3 CALM 0 0 0 0 1013.7 1013.7 0.0
19/12:30am 16.5 18.5 16.0 97 0.3 CALM 0 0 0 0 1013.8 1013.8 0.0
19/12:00am 16.8 18.8 16.0 95 0.5 CALM 0 0 0 0 1014.2 1014.2 0.0
 
Date/Time
EST
Temp
°C
App
Temp
°C
Dew
Point
°C
Rel
Hum
%
Delta-T
°C
Wind Press
QNH
hPa
Press
MSL
hPa
Rain since
9am
mm
Dir  Spd
km/h
Gust
km/h
Spd
kts
Gust
kts
18/11:30pm 17.3 19.3 16.0 92 0.8 CALM 0 6 0 3 1014.6 1014.6 0.0
18/11:00pm 17.7 18.6 16.2 91 0.9 SE 6 7 3 4 1014.6 1014.6 0.0
18/10:30pm 17.1 18.9 15.4 90 1.0 CALM 0 0 0 0 1014.9 1014.9 0.0
18/10:00pm 17.8 19.6 15.4 86 1.4 CALM 0 0 0 0 1014.9 1014.9 0.0
18/09:30pm 18.4 19.9 15.6 84 1.6 SSW 2 7 1 4 1015.1 1015.1 0.0
18/09:00pm 18.5 19.1 15.4 82 1.8 SW 6 7 3 4 1015.1 1015.1 0.0
18/08:30pm 19.9 20.3 15.3 75 2.7 ESE 7 9 4 5 1015.0 1015.0 0.0
18/08:00pm 21.0 21.7 14.4 66 3.8 SE 4 7 2 4 1014.7 1014.7 0.0
18/07:30pm 21.3 20.7 14.7 66 3.9 S 11 15 6 8 1014.4 1014.4 0.0
18/07:00pm 22.0 21.5 14.9 64 4.2 S 11 15 6 8 1014.1 1014.1 0.0
18/06:30pm 22.7 22.3 15.3 63 4.4 SSE 11 15 6 8 1013.9 1013.9 0.0
18/06:00pm 23.6 22.7 14.9 58 5.2 SSE 13 19 7 10 1013.5 1013.5 0.0
18/05:30pm 24.6 23.4 15.0 55 5.7 SE 15 20 8 11 1013.2 1013.2 0.0
18/05:00pm 25.5 23.1 14.3 50 6.7 SE 20 35 11 19 1012.9 1012.9 0.0
18/04:30pm 25.9 23.9 15.6 53 6.3 SE 20 32 11 17 1012.7 1012.7 0.0
18/04:00pm 26.4 22.9 15.4 50 6.7 SE 28 43 15 23 1012.5 1012.5 0.0
18/03:30pm 26.8 24.2 15.8 51 6.7 SE 24 43 13 23 1012.4 1012.4 0.0
18/03:00pm 26.9 23.9 16.8 54 6.3 SE 28 46 15 25 1012.5 1012.5 0.0
18/02:58pm 27.0 23.9 16.6 53 6.4 SE 28 46 15 25 1012.5 1012.5 0.0
18/02:30pm 27.3 25.1 16.9 53 6.5 SE 24 41 13 22 1012.5 1012.5 0.0
18/02:00pm 27.3 25.2 17.2 54 6.3 SE 24 41 13 22 1012.7 1012.7 0.0
18/01:30pm 27.3 25.2 18.0 56 5.9 SE 26 37 14 20 1013.1 1013.1 0.0
18/01:00pm 27.1 25.7 18.7 60 5.4 SE 24 39 13 21 1013.6 1013.6 0.0
18/12:30pm 27.0 25.4 18.3 59 5.5 SE 24 43 13 23 1014.1 1014.1 0.0
18/12:00pm 26.3 25.3 18.9 63 4.7 SE 22 41 12 22 1014.6 1014.6 0.0
18/11:30am 25.3 24.8 19.9 72 3.5 SE 22 35 12 19 1015.0 1015.0 0.0
18/11:00am 24.6 23.4 19.2 72 3.5 SE 24 41 13 22 1015.5 1015.5 0.0
18/10:30am 25.8 25.5 19.2 67 4.2 SSE 19 28 10 15 1015.4 1015.4 0.0
18/10:00am 25.1 24.5 18.8 68 4.0 SSE 20 41 11 22 1015.8 1015.8 0.0
18/09:30am 25.7 25.5 19.8 70 3.8 SSE 20 35 11 19 1015.8 1015.8 0.0
18/09:00am 24.8 24.7 19.6 73 3.3 S 19 30 10 16 1015.7 1015.7 0.4
18/08:30am 23.7 24.6 20.0 80 2.4 S 15 20 8 11 1015.6 1015.6 0.4
18/08:00am 22.9 24.2 20.2 85 1.7 SSE 13 17 7 9 1015.5 1015.5 0.2
18/07:30am 22.6 23.8 19.8 84 1.8 S 13 19 7 10 1015.0 1015.0 0.2
18/07:00am 22.6 23.7 19.6 83 1.9 S 13 20 7 11 1014.6 1014.6 0.2
18/06:30am 22.3 23.6 19.3 83 1.9 S 11 20 6 11 1014.3 1014.3 0.2
18/06:00am 22.2 23.2 19.4 84 1.8 S 13 19 7 10 1014.0 1014.0 0.2
18/05:30am 22.2 23.1 19.2 83 1.9 S 13 17 7 9 1013.7 1013.7 0.2
18/05:00am 22.3 23.7 19.5 84 1.8 S 11 17 6 9 1013.6 1013.6 0.2
18/04:30am 22.3 23.3 19.5 84 1.8 S 13 19 7 10 1013.6 1013.6 0.2
18/04:00am 22.4 23.6 19.9 86 1.6 S 13 19 7 10 1013.6 1013.6 0.2
18/03:30am 22.4 23.2 19.9 86 1.6 S 15 24 8 13 1013.7 1013.7 0.2
18/03:00am 22.6 23.8 19.9 85 1.7 S 13 24 7 13 1013.6 1013.6 0.2
18/02:30am 22.7 23.9 19.9 84 1.8 S 13 20 7 11 1013.8 1013.8 0.2
18/02:00am 22.8 23.7 20.0 84 1.8 S 15 24 8 13 1014.0 1014.0 0.2
18/01:30am 22.8 23.7 20.0 84 1.8 S 15 20 8 11 1014.3 1014.3 0.2
18/01:00am 22.8 24.0 20.0 84 1.8 S 13 19 7 10 1014.7 1014.7 0.2
18/12:30am 23.1 24.1 20.2 84 1.9 S 15 22 8 12 1015.0 1015.0 0.2
18/12:00am 23.1 24.7 19.9 82 2.1 S 11 20 6 11 1015.3 1015.3 0.2
 
Date/Time
EST
Temp
°C
App
Temp
°C
Dew
Point
°C
Rel
Hum
%
Delta-T
°C
Wind Press
QNH
hPa
Press
MSL
hPa
Rain since
9am
mm
Dir  Spd
km/h
Gust
km/h
Spd
kts
Gust
kts
17/11:30pm 23.1 25.1 19.9 82 2.1 S 9 15 5 8 1015.5 1015.5 0.2
17/11:00pm 23.1 25.2 20.2 84 1.9 S 9 17 5 9 1015.7 1015.7 0.2
17/10:30pm 23.1 24.8 20.2 84 1.9 S 11 19 6 10 1015.9 1015.9 0.2
17/10:00pm 23.0 24.8 20.3 85 1.7 SSE 11 17 6 9 1015.9 1015.9 0.2
17/09:30pm 23.0 24.9 20.5 86 1.6 SSE 11 17 6 9 1016.1 1016.1 0.2
17/09:00pm 22.9 25.2 20.6 87 1.5 SE 9 13 5 7 1016.1 1016.1 0.2
17/08:30pm 23.1 24.5 20.4 85 1.7 S 13 19 7 10 1015.9 1015.9 0.2
17/08:00pm 23.6 24.3 20.5 83 2.0 SSE 17 24 9 13 1015.9 1015.9 0.2
17/07:30pm 24.0 25.3 20.1 79 2.5 SSE 13 20 7 11 1015.5 1015.5 0.2
17/07:00pm 24.0 24.5 20.1 79 2.5 SSE 17 26 9 14 1015.1 1015.1 0.2
17/06:30pm 24.1 25.0 20.0 78 2.6 SSE 15 22 8 12 1014.8 1014.8 0.2
17/06:00pm 24.6 25.5 20.1 76 2.9 SE 15 30 8 16 1014.5 1014.5 0.2
17/05:30pm 24.9 25.3 19.9 74 3.2 SSE 17 26 9 14 1014.1 1014.1 0.2
17/05:00pm 25.8 27.1 20.1 71 3.7 SE 13 28 7 15 1014.1 1014.1 0.2
17/04:30pm 26.5 27.5 20.3 68 4.1 SE 15 22 8 12 1013.9 1013.9 0.2
17/04:00pm 26.5 26.8 19.6 66 4.5 SE 17 26 9 14 1013.8 1013.8 0.2
17/03:30pm 27.5 28.7 20.6 66 4.5 SSE 15 22 8 12 1013.6 1013.6 0.2
17/03:00pm 27.0 27.5 20.8 69 4.1 SE 19 26 10 14 1013.5 1013.5 0.2
17/02:30pm 27.0 27.2 20.1 66 4.5 SE 19 28 10 15 1013.5 1013.5 0.2
17/02:00pm 28.2 28.2 19.7 60 5.5 ESE 19 26 10 14 1013.8 1013.8 0.2
17/01:30pm 27.9 27.4 19.1 58 5.7 ESE 20 33 11 18 1014.1 1014.1 0.2
17/01:00pm 28.1 29.5 20.4 63 5.1 SE 13 24 7 13 1014.4 1014.4 0.2
17/12:30pm 27.9 28.0 19.9 61 5.2 SE 19 26 10 14 1014.9 1014.9 0.2
17/12:00pm 27.3 27.6 19.6 62 5.0 SE 17 26 9 14 1015.4 1015.4 0.2
17/11:30am 27.4 27.4 20.2 65 4.7 SE 20 32 11 17 1015.8 1015.8 0.0
17/11:00am 27.2 27.7 20.8 68 4.2 SE 19 32 10 17 1016.3 1016.3 0.0
17/10:30am 26.1 26.8 20.4 71 3.7 SE 17 28 9 15 1016.8 1016.8 0.0
17/10:00am 25.6 25.9 20.4 73 3.4 SSE 19 32 10 17 1017.0 1017.0 0.0
17/09:30am 25.2 26.0 20.7 76 2.9 SSE 17 28 9 15 1017.2 1017.2 0.0
17/09:00am 24.8 25.7 20.9 79 2.6 S 17 28 9 15 1017.2 1017.2 0.6
17/08:30am 24.6 25.8 20.7 79 2.6 S 15 20 8 11 1017.0 1017.0 0.6
17/08:00am 23.2 25.2 20.0 82 2.1 S 9 13 5 7 1016.7 1016.7 0.6
17/07:30am 22.8 24.7 19.8 83 1.9 S 9 13 5 7 1016.4 1016.4 0.6
17/07:00am 22.0 23.7 19.4 85 1.7 S 9 13 5 7 1016.3 1016.3 0.6
17/06:30am 22.3 24.0 19.3 83 1.9 S 9 15 5 8 1016.1 1016.1 0.6
17/06:00am 21.6 23.8 19.5 88 1.3 S 7 11 4 6 1015.8 1015.8 0.6
17/05:30am 21.4 24.7 20.0 92 0.9 SSW 2 6 1 3 1015.6 1015.6 0.6
17/05:00am 21.7 23.7 20.0 90 1.1 SE 9 13 5 7 1015.8 1015.8 0.6
17/04:30am 21.9 23.5 19.1 84 1.8 S 9 11 5 6 1015.4 1015.4 0.6
17/04:00am 22.4 23.7 19.2 82 2.0 S 11 15 6 8 1015.4 1015.4 0.6
17/03:30am 22.4 24.1 19.4 83 1.9 SSE 9 15 5 8 1015.6 1015.6 0.6
17/03:00am 22.3 23.7 19.5 84 1.8 S 11 15 6 8 1015.7 1015.7 0.6
17/02:30am 21.9 23.3 19.6 87 1.5 SSW 11 13 6 7 1016.0 1016.0 0.6
17/02:00am 22.0 23.4 19.5 86 1.6 S 11 15 6 8 1016.2 1016.2 0.6
17/01:30am 22.1 23.6 19.8 87 1.5 S 11 17 6 9 1016.4 1016.4 0.6
17/01:00am 22.1 23.7 20.0 88 1.3 S 11 15 6 8 1016.7 1016.7 0.6
17/12:30am 22.0 24.2 20.3 90 1.1 SSW 9 13 5 7 1017.1 1017.1 0.6
17/12:00am 22.0 24.2 20.5 91 1.0 S 9 11 5 6 1017.3 1017.3 0.6
 
Date/Time
EST
Temp
°C
App
Temp
°C
Dew
Point
°C
Rel
Hum
%
Delta-T
°C
Wind Press
QNH
hPa
Press
MSL
hPa
Rain since
9am
mm
Dir  Spd
km/h
Gust
km/h
Spd
kts
Gust
kts
16/11:30pm 22.2 24.5 20.7 91 1.0 S 9 17 5 9 1017.5 1017.5 0.6
16/11:00pm 22.6 24.9 20.7 89 1.2 SSE 9 13 5 7 1017.5 1017.5 0.6
16/10:30pm 22.6 24.8 21.1 91 1.0 S 11 19 6 10 1017.5 1017.5 0.6
16/10:00pm 22.5 24.6 21.7 95 0.5 S 13 19 7 10 1017.8 1017.8 0.6
16/09:30pm 22.7 23.7 21.7 94 0.7 S 19 26 10 14 1018.1 1018.1 0.4
16/09:00pm 23.6 24.5 20.9 85 1.8 S 17 24 9 13 1017.9 1017.9 0.4
16/08:30pm 24.0 25.2 20.7 82 2.2 S 15 32 8 17 1017.6 1017.6 0.4
16/08:00pm 24.0 25.6 20.7 82 2.2 S 13 26 7 14 1017.5 1017.5 0.4
16/07:30pm 23.9 26.0 20.2 80 2.4 S 9 15 5 8 1017.0 1017.0 0.4
16/07:00pm 24.1 25.9 20.4 80 2.4 S 11 19 6 10 1016.8 1016.8 0.4
16/06:30pm 24.3 26.1 20.4 79 2.5 S 11 19 6 10 1016.6 1016.6 0.4
16/06:00pm 24.6 26.5 20.5 78 2.7 SSE 11 17 6 9 1016.6 1016.6 0.4
16/05:30pm 25.1 26.5 21.0 78 2.7 SSE 15 20 8 11 1016.3 1016.3 0.4
16/05:00pm 25.6 26.2 21.1 76 3.0 SSE 19 28 10 15 1016.0 1016.0 0.4
16/04:30pm 25.7 26.7 21.1 76 3.0 SSE 17 24 9 13 1015.9 1015.9 0.4
16/04:00pm 25.6 27.0 21.9 80 2.5 SSE 17 24 9 13 1015.7 1015.7 0.4
16/03:30pm 25.6 26.0 21.7 79 2.6 SSE 22 35 12 19 1015.6 1015.6 0.4
16/03:00pm 26.8 27.9 22.0 75 3.2 SE 19 26 10 14 1015.5 1015.5 0.4
16/02:30pm 27.1 27.5 20.7 68 4.2 SE 19 28 10 15 1015.3 1015.3 0.4
16/02:00pm 27.9 28.9 21.7 69 4.1 SE 19 30 10 16 1015.6 1015.6 0.4
16/01:30pm 27.9 29.5 22.2 71 3.8 SSE 17 24 9 13 1015.9 1015.9 0.4
16/01:00pm 27.6 29.0 21.9 71 3.8 SE 17 26 9 14 1016.4 1016.4 0.4
16/12:30pm 27.6 29.0 21.9 71 3.8 SSE 17 26 9 14 1016.8 1016.8 0.4
16/12:00pm 27.8 29.1 22.3 72 3.7 SSE 19 28 10 15 1017.2 1017.2 0.4
16/11:30am 27.8 29.6 22.5 73 3.6 SE 17 26 9 14 1017.4 1017.4 0.4
16/11:00am 26.2 28.0 22.5 80 2.5 SSE 17 24 9 13 1017.9 1017.9 0.4
16/10:30am 25.4 27.7 22.7 85 1.8 SSE 15 24 8 13 1018.3 1018.3 0.4
16/10:00am 25.4 27.7 22.1 82 2.2 SSE 13 26 7 14 1018.4 1018.4 0.4
16/09:30am 24.5 26.9 22.2 87 1.5 SSE 13 22 7 12 1018.4 1018.4 0.4
16/09:00am 24.4 26.3 22.1 87 1.5 S 15 20 8 11 1018.4 1018.4 6.4
16/08:30am 23.9 26.2 22.0 89 1.3 S 13 20 7 11 1018.1 1018.1 6.4

Other formats

Comma delimited format used in spreadsheet applications
http://www.bom.gov.au/fwo/IDQ60801/IDQ60801.94288.axf

JavaScript Object Notation format (JSON) in row-major order
http://www.bom.gov.au/fwo/IDQ60801/IDQ60801.94288.json

Data quality

Most of these data are generated automatically and are frequently updated. Quality checks on data are not normally performed. It is possible for incorrect values to appear. Refer to information at About Latest Weather Observations and please check the disclaimer before using these data.